createdAt,value
2018-03-21T14:21:16.844Z,9.20
2018-03-21T14:22:17.102Z,2.50
2018-03-21T14:23:17.405Z,3.10
2018-03-21T14:24:17.327Z,3.90
2018-03-21T14:26:02.831Z,1.50
2018-03-21T14:27:02.998Z,3.80
2018-03-21T14:50:48.443Z,2.30
2018-03-21T14:51:46.508Z,2.60
2018-03-21T14:52:50.420Z,2.90
2018-03-21T14:53:48.432Z,2.70
2018-03-21T14:54:47.017Z,2.50
2018-03-21T14:55:47.231Z,2.60
2018-03-21T14:56:47.433Z,2.90
2018-03-21T14:57:47.645Z,2.30
2018-03-21T14:58:47.850Z,2.90
2018-03-21T14:59:51.916Z,2.80
2018-03-21T15:00:48.249Z,2.30
2018-03-21T15:01:48.452Z,2.60
2018-03-21T15:02:48.655Z,3.70
2018-03-21T15:03:48.911Z,2.80
2018-03-21T15:04:49.065Z,3.00
2018-03-21T15:05:49.272Z,2.30
2018-03-21T15:06:49.489Z,2.60
2018-03-21T15:07:49.706Z,2.90
2018-03-21T15:08:49.920Z,3.60
2018-03-21T15:09:50.132Z,2.80
2018-03-21T15:10:50.350Z,3.60
2018-03-21T15:11:50.628Z,3.30
2018-03-21T15:12:50.805Z,3.10
2018-03-21T15:13:50.957Z,3.50
2018-03-21T15:14:51.073Z,3.20
2018-03-21T15:15:51.244Z,3.00
2018-03-21T15:16:53.424Z,3.10
2018-03-21T15:17:53.422Z,4.30
2018-03-21T15:18:51.750Z,3.50
2018-03-21T15:19:51.959Z,3.20
2018-03-21T15:20:53.920Z,4.20
2018-03-21T15:21:52.373Z,4.40
2018-03-21T15:22:52.586Z,4.30
2018-03-21T15:23:52.790Z,3.70
2018-03-21T15:24:54.925Z,3.60
2018-03-21T15:25:53.163Z,3.40
2018-03-21T15:26:54.919Z,4.70
2018-03-21T15:27:53.506Z,3.10
2018-03-21T15:28:53.707Z,3.70
2018-03-21T15:29:53.929Z,4.10
2018-03-21T15:30:55.938Z,3.30
2018-03-21T15:31:57.933Z,3.60
2018-03-21T15:32:54.396Z,3.50
2018-03-21T15:33:54.606Z,3.60
2018-03-21T15:34:56.434Z,3.50
2018-03-21T15:36:02.923Z,4.60
2018-03-21T15:36:55.243Z,3.90
2018-03-21T15:37:55.462Z,3.80
2018-03-21T15:38:57.429Z,3.20
2018-03-21T15:39:55.880Z,3.30
2018-03-21T15:40:57.926Z,2.50
2018-03-21T15:41:56.260Z,3.50
2018-03-21T15:42:58.424Z,3.80
2018-03-21T15:44:00.421Z,3.80
2018-03-21T15:44:56.746Z,4.00
2018-03-21T15:45:56.978Z,3.30
2018-03-21T15:46:57.187Z,3.70
2018-03-21T15:47:58.925Z,3.70
2018-03-21T15:48:57.631Z,3.70
2018-03-21T15:49:57.842Z,4.10
2018-03-21T15:50:58.059Z,4.70
2018-03-21T15:51:58.263Z,3.80
2018-03-21T15:52:58.477Z,4.50
2018-03-21T15:53:58.691Z,3.20
2018-03-21T15:55:00.423Z,3.70
2018-03-21T15:55:59.126Z,3.60
2018-03-21T15:56:59.330Z,5.70
2018-03-21T15:58:03.435Z,3.70
2018-03-21T15:58:59.758Z,3.60
2018-03-21T15:59:59.961Z,5.70
2018-03-21T16:01:00.172Z,4.50
2018-03-21T16:02:00.369Z,3.10
2018-03-21T16:03:04.433Z,4.30
2018-03-21T16:04:00.775Z,4.20
2018-03-21T16:05:00.989Z,5.10
2018-03-21T16:06:01.234Z,4.20
2018-03-21T16:07:01.405Z,4.20
2018-03-21T16:08:01.613Z,4.20
2018-03-21T16:09:01.828Z,4.10
2018-03-21T16:10:02.048Z,6.70
2018-03-21T16:11:02.250Z,3.80
2018-03-21T16:12:07.063Z,4.10
2018-03-21T16:13:04.489Z,3.70
2018-03-21T16:14:02.986Z,4.10
2018-03-21T16:15:03.114Z,3.90
2018-03-21T16:16:03.334Z,4.80
2018-03-21T16:17:03.553Z,4.60
2018-03-21T16:18:03.747Z,3.30
2018-03-21T16:19:03.958Z,4.20
2018-03-21T16:20:04.163Z,3.60
2018-03-21T16:21:04.388Z,4.30
2018-03-21T16:22:04.592Z,2.90
2018-03-21T16:23:06.435Z,5.20
2018-03-21T16:24:05.016Z,4.60
2018-03-21T16:25:06.924Z,4.10
2018-03-21T16:26:05.383Z,4.20
2018-03-21T16:27:05.593Z,5.90
2018-03-21T16:28:05.810Z,4.20
2018-03-21T16:29:06.017Z,3.90
2018-03-21T16:30:06.232Z,5.10
2018-03-21T16:31:08.437Z,3.40
2018-03-21T16:32:06.641Z,4.10
2018-03-21T16:33:06.845Z,4.10
2018-03-21T16:34:07.048Z,4.20
2018-03-21T16:35:07.261Z,3.60
2018-03-21T16:36:07.468Z,3.80
2018-03-21T16:37:07.690Z,4.00
2018-03-21T16:38:10.437Z,4.90
2018-03-21T16:39:09.925Z,5.10
2018-03-21T16:40:08.166Z,4.00
2018-03-21T16:41:08.365Z,4.90
2018-03-21T16:42:08.471Z,5.50
2018-03-21T16:43:08.686Z,7.70
2018-03-21T16:44:08.902Z,5.30
2018-03-21T16:45:09.107Z,5.00
2018-03-21T16:46:10.927Z,3.50
2018-03-21T16:47:09.514Z,3.50
2018-03-21T16:48:09.744Z,4.30
2018-03-21T16:49:11.960Z,5.00
2018-03-21T16:50:11.925Z,5.30
2018-03-21T16:51:10.397Z,5.30
2018-03-21T16:52:10.604Z,4.50
2018-03-21T16:53:10.808Z,5.20
2018-03-21T16:54:11.026Z,4.80
2018-03-21T16:55:11.238Z,5.00
2018-03-21T16:56:11.442Z,3.90
2018-03-21T16:57:11.653Z,5.90
2018-03-21T16:58:11.870Z,5.70
2018-03-21T16:59:12.080Z,6.60
2018-03-21T17:00:12.286Z,5.50
2018-03-21T17:01:12.537Z,6.80
2018-03-21T17:02:12.723Z,5.40
2018-03-21T17:03:14.435Z,4.80
2018-03-21T17:04:13.146Z,5.00
2018-03-21T17:05:14.928Z,6.00
2018-03-21T17:06:17.435Z,4.50
2018-03-21T17:07:13.652Z,3.90
2018-03-21T17:08:13.860Z,5.50
2018-03-21T17:09:14.078Z,4.80
2018-03-21T17:10:14.324Z,4.40
2018-03-21T17:11:14.506Z,6.30
2018-03-21T17:12:14.719Z,4.90
2018-03-21T17:13:18.428Z,5.00
2018-03-21T17:14:15.181Z,8.30
2018-03-21T17:15:16.935Z,9.90
2018-03-21T17:16:15.539Z,11.70
2018-03-21T17:17:15.752Z,8.60
2018-03-21T17:18:15.963Z,8.40
2018-03-21T17:19:16.181Z,5.90
2018-03-21T17:20:17.943Z,6.00
2018-03-21T17:21:18.446Z,7.20
2018-03-21T17:22:16.672Z,7.70
2018-03-21T17:23:16.899Z,8.30
2018-03-21T17:24:18.926Z,9.20
2018-03-21T17:25:17.268Z,8.40
2018-03-21T17:26:17.476Z,7.40
2018-03-21T17:27:17.689Z,6.50
2018-03-21T17:28:19.426Z,5.40
2018-03-21T17:29:18.012Z,5.60
2018-03-21T17:30:18.219Z,6.80
2018-03-21T17:31:18.493Z,7.30
2018-03-21T17:32:18.641Z,7.40
2018-03-21T17:33:18.858Z,6.70
2018-03-21T17:34:19.067Z,6.40
2018-03-21T17:35:19.289Z,8.70
2018-03-21T17:36:19.498Z,8.50
2018-03-21T17:37:19.706Z,9.20
2018-03-21T17:38:19.920Z,10.30
2018-03-21T17:39:22.945Z,8.70
2018-03-21T17:40:20.292Z,6.40
2018-03-21T17:41:20.495Z,7.90
2018-03-21T17:42:20.707Z,7.30
2018-03-21T17:43:20.926Z,6.60
2018-03-21T17:44:21.129Z,6.20
2018-03-21T17:45:21.348Z,6.80
2018-03-21T17:46:21.564Z,5.90
2018-03-21T17:47:21.770Z,6.00
2018-03-21T17:48:21.986Z,5.40
2018-03-21T17:49:22.193Z,8.10
2018-03-21T17:50:22.404Z,8.40
2018-03-21T17:51:22.627Z,6.00
2018-03-21T17:52:22.827Z,7.10
2018-03-21T17:53:23.054Z,7.90
2018-03-21T17:54:26.934Z,6.40
2018-03-21T17:55:23.396Z,5.20
2018-03-21T17:56:23.602Z,7.00
2018-03-21T17:57:23.809Z,5.90
2018-03-21T17:58:28.983Z,7.40
2018-03-21T17:59:24.150Z,6.40
2018-03-21T18:00:25.934Z,5.60
2018-03-21T18:01:32.445Z,7.40
2018-03-21T18:02:24.651Z,6.40
2018-03-21T18:03:24.883Z,8.10
2018-03-21T18:04:26.930Z,8.00
2018-03-21T18:05:25.279Z,12.30
2018-03-21T18:06:27.433Z,9.30
2018-03-21T18:07:25.651Z,7.80
2018-03-21T18:08:25.858Z,7.10
2018-03-21T18:09:26.073Z,8.40
2018-03-21T18:10:26.278Z,6.70
2018-03-21T18:11:26.492Z,8.60
2018-03-21T18:12:28.446Z,6.20
2018-03-21T18:13:34.449Z,8.80
2018-03-21T18:14:27.028Z,13.80
2018-03-21T18:15:27.243Z,17.40
2018-03-21T18:16:27.459Z,6.10
2018-03-21T18:17:27.689Z,4.70
2018-03-21T18:18:27.866Z,7.30
2018-03-21T18:19:29.941Z,7.70
2018-03-21T18:20:28.285Z,7.80
2018-03-21T18:21:30.432Z,9.00
2018-03-21T18:22:28.639Z,6.40
2018-03-21T18:23:28.850Z,7.50
2018-03-21T18:24:29.055Z,7.60
2018-03-21T18:25:29.264Z,7.00
2018-03-21T18:26:29.476Z,7.80
2018-03-21T18:27:29.680Z,6.70
2018-03-21T18:28:29.885Z,5.80
2018-03-21T18:29:30.098Z,7.90
2018-03-21T18:30:30.316Z,6.30
2018-03-21T18:31:32.456Z,6.20
2018-03-21T18:32:32.445Z,5.70
2018-03-21T18:33:30.895Z,7.00
2018-03-21T18:34:32.946Z,6.90
2018-03-21T18:35:31.280Z,7.80
2018-03-21T18:36:31.487Z,11.50
2018-03-21T18:37:31.699Z,50.60
2018-03-21T18:38:33.431Z,23.40
2018-03-21T18:39:32.009Z,12.80
2018-03-21T18:40:33.935Z,9.90
2018-03-21T18:41:35.931Z,9.20
2018-03-21T18:42:34.438Z,9.60
2018-03-21T18:43:34.437Z,9.60
2018-03-21T18:44:32.773Z,10.60
2018-03-21T18:45:32.978Z,34.90
2018-03-21T18:46:33.185Z,34.30
2018-03-21T18:47:33.391Z,19.40
2018-03-21T18:48:33.613Z,17.40
2018-03-21T18:49:33.831Z,16.20
2018-03-21T18:50:34.028Z,16.20
2018-03-21T18:51:34.245Z,15.40
2018-03-21T18:52:34.457Z,13.60
2018-03-21T18:53:34.664Z,16.40
2018-03-21T18:54:34.883Z,13.40
2018-03-21T18:55:35.083Z,15.00
2018-03-21T18:56:35.296Z,15.50
2018-03-21T18:57:35.513Z,14.70
2018-03-21T18:58:35.753Z,16.60
2018-03-21T18:59:35.940Z,14.40
2018-03-21T19:00:36.145Z,15.00
2018-03-21T19:01:36.358Z,15.50
2018-03-21T19:02:38.434Z,15.50
2018-03-21T19:03:36.761Z,15.30
2018-03-21T19:04:36.973Z,13.80
2018-03-21T19:05:37.172Z,13.20
2018-03-21T19:06:37.387Z,14.20
2018-03-21T19:07:37.636Z,17.00
2018-03-21T19:08:37.701Z,17.20
2018-03-21T19:09:37.916Z,17.10
2018-03-21T19:10:38.127Z,20.00
2018-03-21T19:11:38.328Z,16.60
2018-03-21T19:12:45.451Z,14.60
2018-03-21T19:13:40.439Z,16.40
2018-03-21T19:14:41.050Z,14.90
2018-03-21T19:15:40.433Z,15.70
2018-03-21T19:16:39.002Z,14.20
2018-03-21T19:17:39.211Z,14.90
2018-03-21T19:18:39.418Z,16.60
2018-03-21T19:19:41.463Z,17.70
2018-03-21T19:20:39.790Z,16.00
2018-03-21T19:21:40.024Z,16.70
2018-03-21T19:22:40.196Z,16.40
2018-03-21T19:23:40.404Z,16.50
2018-03-21T19:24:40.625Z,16.40
2018-03-21T19:25:40.830Z,13.60
2018-03-21T19:26:41.033Z,16.30
2018-03-21T19:27:41.251Z,15.50
2018-03-21T19:28:43.434Z,13.70
2018-03-21T19:29:45.434Z,13.80
2018-03-21T19:30:41.766Z,13.60
2018-03-21T19:31:41.975Z,15.00
2018-03-21T19:32:42.174Z,15.40
2018-03-21T19:33:45.945Z,13.50
2018-03-21T19:34:42.514Z,12.70
2018-03-21T19:35:42.727Z,14.00
2018-03-21T19:36:44.433Z,12.50
2018-03-21T19:37:43.138Z,12.70
2018-03-21T19:38:43.347Z,15.80
2018-03-21T19:39:43.596Z,13.30
2018-03-21T19:40:43.768Z,12.70
2018-03-21T19:41:43.977Z,13.20
2018-03-21T19:42:44.175Z,12.10
2018-03-21T19:43:44.391Z,14.60
2018-03-21T19:44:44.603Z,14.40
2018-03-21T19:45:44.823Z,15.80
2018-03-21T19:46:45.031Z,16.60
2018-03-21T19:47:48.933Z,16.10
2018-03-21T19:48:45.385Z,14.00
2018-03-21T19:49:47.437Z,14.40
2018-03-21T19:50:45.758Z,12.80
2018-03-21T19:51:46.005Z,14.40
2018-03-21T19:52:46.181Z,14.70
2018-03-21T19:53:46.392Z,17.60
2018-03-21T19:54:46.624Z,15.20
2018-03-21T19:55:46.820Z,16.40
2018-03-21T19:56:47.031Z,17.20
2018-03-21T19:57:47.247Z,16.20
2018-03-21T19:58:47.450Z,15.10
2018-03-21T19:59:47.702Z,16.50
2018-03-21T20:00:47.873Z,16.80
2018-03-21T20:01:50.942Z,17.70
2018-03-21T20:02:48.288Z,19.40
2018-03-21T20:03:48.512Z,19.70
2018-03-21T20:04:48.697Z,18.00
2018-03-21T20:05:48.965Z,18.10
2018-03-21T20:06:49.113Z,21.90
2018-03-21T20:07:49.327Z,19.10
2018-03-21T20:08:49.526Z,21.60
2018-03-21T20:09:49.735Z,21.80
2018-03-21T20:10:49.934Z,17.50
2018-03-21T20:11:50.147Z,19.50
2018-03-21T20:12:50.357Z,20.30
2018-03-21T20:13:50.568Z,23.10
2018-03-21T20:14:52.434Z,23.70
2018-03-21T20:15:50.895Z,25.20
2018-03-21T20:16:51.101Z,23.80
2018-03-21T20:17:51.314Z,20.60
2018-03-21T20:18:51.515Z,19.60
2018-03-21T20:19:53.442Z,22.40
2018-03-21T20:20:51.912Z,20.50
2018-03-21T20:21:52.002Z,21.10
2018-03-21T20:22:52.248Z,19.50
2018-03-21T20:23:52.431Z,17.60
2018-03-21T20:24:54.533Z,18.60
2018-03-21T20:25:54.434Z,18.00
2018-03-21T20:26:54.441Z,19.00
2018-03-21T20:27:53.022Z,18.00
2018-03-21T20:28:53.237Z,17.50
2018-03-21T20:29:53.448Z,18.70
2018-03-21T20:30:55.454Z,17.30
2018-03-21T20:31:53.783Z,16.30
2018-03-21T20:32:55.935Z,17.90
2018-03-21T20:33:54.155Z,16.20
2018-03-21T20:34:54.373Z,18.20
2018-03-21T20:35:54.565Z,18.70
2018-03-21T20:36:56.442Z,19.60
2018-03-21T20:37:54.890Z,17.80
2018-03-21T20:38:55.094Z,18.10
2018-03-21T20:39:55.299Z,15.20
2018-03-21T20:40:55.497Z,18.40
2018-03-21T20:41:55.754Z,15.90
2018-03-21T20:42:55.951Z,17.00
2018-03-21T20:43:57.934Z,18.20
2018-03-21T20:44:56.296Z,16.50
2018-03-21T20:45:56.460Z,17.90
2018-03-21T20:46:56.675Z,19.20
2018-03-21T20:47:56.881Z,17.40
2018-03-21T20:48:57.100Z,16.20
2018-03-21T20:49:58.933Z,18.70
2018-03-21T20:50:57.504Z,16.30
2018-03-21T20:51:59.433Z,17.20
2018-03-21T20:52:59.433Z,16.40
2018-03-21T20:53:58.023Z,16.30
2018-03-21T20:54:58.223Z,15.20
2018-03-21T20:56:00.937Z,16.20
2018-03-21T20:56:58.639Z,16.80
2018-03-21T20:57:58.852Z,17.30
2018-03-21T20:58:59.050Z,14.90
2018-03-21T20:59:59.264Z,18.40
2018-03-21T21:00:59.490Z,16.90
2018-03-21T21:01:59.697Z,15.90
2018-03-21T21:02:59.897Z,17.30
2018-03-21T21:04:01.945Z,17.00
2018-03-21T21:05:00.267Z,17.30
2018-03-21T21:06:00.477Z,16.00
2018-03-21T21:07:00.683Z,14.80
2018-03-21T21:08:00.879Z,18.30
2018-03-21T21:09:03.943Z,18.40
2018-03-21T21:10:04.938Z,20.20
2018-03-21T21:11:02.940Z,22.10
2018-03-21T21:12:01.514Z,21.80
2018-03-21T21:13:03.432Z,20.40
2018-03-21T21:14:04.439Z,23.70
2018-03-21T21:15:04.955Z,22.60
2018-03-21T21:16:02.147Z,19.60
2018-03-21T21:17:02.362Z,19.20
2018-03-21T21:18:02.561Z,17.80
2018-03-21T21:19:02.774Z,16.70
2018-03-21T21:20:02.966Z,17.60
2018-03-21T21:21:03.186Z,15.30
2018-03-21T21:22:03.391Z,14.40
2018-03-21T21:23:03.601Z,16.60
2018-03-21T21:24:03.820Z,20.90
2018-03-21T21:25:04.026Z,15.00
2018-03-21T21:26:05.955Z,15.00
2018-03-21T21:27:04.409Z,15.20
2018-03-21T21:28:04.608Z,15.80
2018-03-21T21:29:04.818Z,16.40
2018-03-21T21:30:05.026Z,17.40
2018-03-21T21:31:05.229Z,16.80
2018-03-21T21:32:05.437Z,24.60
2018-03-21T21:33:05.644Z,22.00
2018-03-21T21:34:05.841Z,21.20
2018-03-21T21:35:06.056Z,21.70
2018-03-21T21:36:06.258Z,19.70
2018-03-21T21:37:06.468Z,17.90
2018-03-21T21:38:10.443Z,16.20
2018-03-21T21:39:06.902Z,16.60
2018-03-21T21:40:07.105Z,15.70
2018-03-21T21:41:07.311Z,18.20
2018-03-21T21:42:07.524Z,17.10
2018-03-21T21:43:07.729Z,16.50
2018-03-21T21:44:07.942Z,17.00
2018-03-21T21:45:08.164Z,16.40
2018-03-21T21:46:08.369Z,16.20
2018-03-21T21:47:15.439Z,19.30
2018-03-21T21:48:08.778Z,16.10
2018-03-21T21:49:08.982Z,17.10
2018-03-21T21:50:09.192Z,18.60
2018-03-21T21:51:09.388Z,16.20
2018-03-21T21:52:09.608Z,16.70
2018-03-21T21:53:21.435Z,18.30
2018-03-21T21:54:09.996Z,17.80
2018-03-21T21:55:10.211Z,16.90
2018-03-21T21:56:11.944Z,18.00
2018-03-21T21:57:10.517Z,18.70
2018-03-21T21:58:10.732Z,18.50
2018-03-21T21:59:10.928Z,22.80
2018-03-21T22:00:11.152Z,19.00
2018-03-21T22:01:11.350Z,17.60
2018-03-21T22:02:11.556Z,19.80
2018-03-21T22:03:11.768Z,17.80
2018-03-21T22:04:11.973Z,20.40
2018-03-21T22:05:12.187Z,18.20
2018-03-21T22:06:12.383Z,17.00
2018-03-21T22:07:12.583Z,18.10
2018-03-21T22:08:12.799Z,16.10
2018-03-21T22:09:14.962Z,16.50
2018-03-21T22:10:13.142Z,17.20
2018-03-21T22:11:14.936Z,19.50
2018-03-21T22:12:13.523Z,19.60
2018-03-21T22:13:13.734Z,15.70
2018-03-21T22:14:15.439Z,18.80
2018-03-21T22:15:16.938Z,18.80
2018-03-21T22:16:14.278Z,17.10
2018-03-21T22:17:16.442Z,19.10
2018-03-21T22:18:16.442Z,19.30
2018-03-21T22:19:16.441Z,16.50
2018-03-21T22:20:14.892Z,18.40
2018-03-21T22:21:15.093Z,18.60
2018-03-21T22:22:15.303Z,19.60
2018-03-21T22:23:15.510Z,21.90
2018-03-21T22:24:15.729Z,21.50
2018-03-21T22:25:15.935Z,18.40
2018-03-21T22:26:16.141Z,18.40
2018-03-21T22:27:16.352Z,18.40
2018-03-21T22:28:16.546Z,18.80
2018-03-21T22:29:16.755Z,20.30
2018-03-21T22:30:16.951Z,19.50
2018-03-21T22:31:17.181Z,26.50
2018-03-21T22:32:18.939Z,22.60
2018-03-21T22:33:17.510Z,19.30
2018-03-21T22:34:17.722Z,21.00
2018-03-21T22:35:17.927Z,19.40
2018-03-21T22:36:18.133Z,19.30
2018-03-21T22:37:18.344Z,20.10
2018-03-21T22:38:18.545Z,19.40
2018-03-21T22:39:20.436Z,21.00
2018-03-21T22:40:18.904Z,22.60
2018-03-21T22:41:26.934Z,24.20
2018-03-21T22:42:21.947Z,23.50
2018-03-21T22:43:19.394Z,24.10
2018-03-21T22:44:19.598Z,23.30
2018-03-21T22:45:19.813Z,21.90
2018-03-21T22:46:20.033Z,22.70
2018-03-21T22:47:20.216Z,18.10
2018-03-21T22:48:20.427Z,20.40
2018-03-21T22:49:20.628Z,22.30
2018-03-21T22:50:20.826Z,18.60
2018-03-21T22:51:21.036Z,17.80
2018-03-21T22:52:22.935Z,17.40
2018-03-21T22:53:21.405Z,18.40
2018-03-21T22:54:21.505Z,17.90
2018-03-21T22:55:21.700Z,16.70
2018-03-21T22:56:21.912Z,20.80
2018-03-21T22:57:22.102Z,16.40
2018-03-21T22:58:23.934Z,16.40
2018-03-21T22:59:22.516Z,17.00
2018-03-21T23:00:22.733Z,17.70
2018-03-21T23:01:22.947Z,18.00
2018-03-21T23:02:25.947Z,17.50
2018-03-21T23:03:23.275Z,16.70
2018-03-21T23:04:23.497Z,16.80
2018-03-21T23:05:23.699Z,16.90
2018-03-21T23:06:23.903Z,19.70
2018-03-21T23:07:24.105Z,21.50
2018-03-21T23:08:24.303Z,20.20
2018-03-21T23:09:24.518Z,18.30
2018-03-21T23:10:24.720Z,18.70
2018-03-21T23:11:24.932Z,16.50
2018-03-21T23:12:25.144Z,20.30
2018-03-21T23:13:25.344Z,20.50
2018-03-21T23:14:25.551Z,18.90
2018-03-21T23:15:25.748Z,17.00
2018-03-21T23:16:25.944Z,18.40
2018-03-21T23:17:26.167Z,19.50
2018-03-21T23:18:26.358Z,19.90
2018-03-21T23:19:26.572Z,19.00
2018-03-21T23:20:30.442Z,17.80
2018-03-21T23:21:26.898Z,19.70
2018-03-21T23:22:27.114Z,18.40
2018-03-21T23:23:27.311Z,17.20
2018-03-21T23:24:27.526Z,20.80
2018-03-21T23:25:27.719Z,18.80
2018-03-21T23:26:29.442Z,22.90
2018-03-21T23:27:28.157Z,28.70
2018-03-21T23:28:28.350Z,28.30
2018-03-21T23:29:32.437Z,25.10
2018-03-21T23:30:28.765Z,23.00
2018-03-21T23:31:28.962Z,20.10
2018-03-21T23:32:29.175Z,20.10
2018-03-21T23:33:30.952Z,20.80
2018-03-21T23:34:31.442Z,21.60
2018-03-21T23:35:29.651Z,21.20
2018-03-21T23:36:29.859Z,23.30
2018-03-21T23:37:30.073Z,24.20
2018-03-21T23:38:30.288Z,26.30
2018-03-21T23:39:32.479Z,21.70
2018-03-21T23:40:30.665Z,20.90
2018-03-21T23:41:32.437Z,21.80
2018-03-21T23:42:31.006Z,20.00
2018-03-21T23:43:31.217Z,20.20
2018-03-21T23:44:31.419Z,21.30
2018-03-21T23:45:31.631Z,19.60
2018-03-21T23:46:31.837Z,21.70
2018-03-21T23:47:33.949Z,18.90
2018-03-21T23:48:32.154Z,19.40
2018-03-21T23:49:32.352Z,19.40
2018-03-21T23:50:34.435Z,20.50
2018-03-21T23:51:32.763Z,21.00
2018-03-21T23:52:32.962Z,22.10
2018-03-21T23:53:36.935Z,20.20
2018-03-21T23:54:33.388Z,22.40
2018-03-21T23:55:33.602Z,21.60
2018-03-21T23:56:33.808Z,23.30
2018-03-21T23:57:34.023Z,20.20
2018-03-21T23:58:34.259Z,22.40
2018-03-21T23:59:34.427Z,24.90
